createdAt,value
2019-05-19T00:04:05.597Z,14.80
2019-05-19T00:09:11.200Z,14.70
2019-05-19T00:14:16.470Z,14.70
2019-05-19T00:19:26.632Z,14.70
2019-05-19T00:24:29.217Z,14.60
2019-05-19T00:29:34.213Z,14.50
2019-05-19T00:34:38.279Z,14.50
2019-05-19T00:39:43.212Z,14.40
2019-05-19T00:44:49.411Z,14.30
2019-05-19T00:49:54.649Z,14.40
2019-05-19T00:55:00.024Z,14.20
2019-05-19T01:00:06.007Z,14.20
2019-05-19T01:05:13.053Z,14.20
2019-05-19T01:10:18.109Z,14.20
2019-05-19T01:15:23.246Z,14.10
2019-05-19T01:20:28.485Z,14.10
2019-05-19T01:25:33.797Z,14.10
2019-05-19T01:30:39.023Z,14.10
2019-05-19T01:35:42.531Z,14.00
2019-05-19T01:40:47.175Z,14.00
2019-05-19T01:45:52.933Z,13.80
2019-05-19T01:50:57.826Z,13.80
2019-05-19T01:56:02.660Z,13.70
2019-05-19T02:01:07.323Z,13.70
2019-05-19T02:06:12.193Z,13.60
2019-05-19T02:11:16.370Z,13.60
2019-05-19T02:16:21.888Z,13.50
2019-05-19T02:21:25.696Z,13.50
2019-05-19T02:26:30.197Z,13.30
2019-05-19T02:31:34.445Z,13.40
2019-05-19T02:36:38.766Z,13.40
2019-05-19T02:41:46.649Z,13.40
2019-05-19T02:46:53.445Z,13.30
2019-05-19T02:52:00.966Z,13.40
2019-05-19T02:57:06.407Z,13.40
2019-05-19T03:02:12.664Z,13.40
2019-05-19T03:07:16.904Z,13.40
2019-05-19T03:12:21.152Z,13.50
2019-05-19T03:17:26.202Z,13.50
2019-05-19T03:22:31.500Z,13.50
2019-05-19T03:27:36.373Z,13.50
2019-05-19T03:32:50.540Z,13.60
2019-05-19T03:37:55.703Z,13.60
2019-05-19T03:43:00.569Z,13.60
2019-05-19T03:48:06.419Z,13.60
2019-05-19T03:53:11.689Z,13.60
2019-05-19T03:58:17.001Z,13.60
2019-05-19T04:03:22.144Z,13.70
2019-05-19T04:08:27.104Z,13.70
2019-05-19T04:13:32.322Z,13.70
2019-05-19T04:18:37.446Z,13.70
2019-05-19T04:23:42.683Z,13.70
2019-05-19T04:28:47.503Z,13.80
2019-05-19T04:33:52.582Z,13.90
2019-05-19T04:38:57.807Z,13.90
2019-05-19T04:44:03.116Z,13.90
2019-05-19T04:49:09.604Z,14.00
2019-05-19T04:54:15.217Z,14.00
2019-05-19T04:59:20.604Z,14.10
2019-05-19T05:04:29.084Z,14.00
2019-05-19T05:09:32.855Z,14.10
2019-05-19T05:14:38.543Z,14.20
2019-05-19T05:19:44.455Z,14.20
2019-05-19T05:24:49.710Z,14.30
2019-05-19T05:29:54.710Z,14.40
2019-05-19T05:34:59.998Z,14.40
2019-05-19T05:40:05.994Z,14.40
2019-05-19T05:45:12.526Z,14.40
2019-05-19T05:50:18.976Z,14.50
2019-05-19T05:55:24.012Z,14.50
2019-05-19T06:00:29.110Z,14.60
2019-05-19T06:05:33.990Z,14.60
2019-05-19T06:10:37.377Z,14.60
2019-05-19T06:15:42.578Z,14.70
2019-05-19T06:20:48.851Z,14.80
2019-05-19T06:25:54.493Z,14.90
2019-05-19T06:31:01.269Z,15.00
2019-05-19T06:36:06.648Z,15.00
2019-05-19T06:41:11.318Z,15.10
2019-05-19T06:46:15.458Z,15.40
2019-05-19T06:51:19.581Z,15.50
2019-05-19T06:56:24.325Z,15.70
2019-05-19T07:01:28.922Z,15.90
2019-05-19T07:06:34.926Z,16.10
2019-05-19T07:11:39.157Z,16.20
2019-05-19T07:16:45.813Z,16.50
2019-05-19T07:21:50.165Z,16.60
2019-05-19T07:26:54.518Z,16.60
2019-05-19T07:31:59.230Z,16.80
2019-05-19T07:37:03.411Z,16.70
2019-05-19T07:42:07.600Z,17.10
2019-05-19T07:47:12.887Z,17.20
2019-05-19T07:52:19.790Z,17.20
2019-05-19T07:57:25.442Z,17.30
2019-05-19T08:02:30.828Z,17.40
2019-05-19T08:07:35.304Z,17.30
2019-05-19T08:12:39.494Z,17.70
2019-05-19T08:17:45.025Z,17.70
2019-05-19T08:22:51.444Z,18.00
2019-05-19T08:28:07.403Z,18.10
2019-05-19T08:33:04.117Z,18.30
2019-05-19T08:38:09.789Z,18.50
2019-05-19T08:43:15.043Z,18.70
2019-05-19T08:48:20.357Z,19.10
2019-05-19T08:53:27.090Z,18.90
2019-05-19T08:58:32.154Z,19.30
2019-05-19T09:03:37.766Z,19.70
2019-05-19T09:08:43.229Z,19.70
2019-05-19T09:13:48.677Z,19.70
2019-05-19T09:18:54.206Z,20.10
2019-05-19T09:23:59.861Z,20.30
2019-05-19T09:29:05.402Z,20.90
2019-05-19T09:34:10.595Z,21.00
2019-05-19T09:39:15.655Z,21.00
2019-05-19T09:44:21.202Z,20.70
2019-05-19T09:49:36.381Z,20.60
2019-05-19T09:54:45.527Z,20.70
2019-05-19T09:59:49.778Z,21.20
2019-05-19T10:04:55.246Z,21.10
2019-05-19T10:10:06.403Z,21.40
2019-05-19T10:15:13.787Z,21.80
2019-05-19T10:20:19.981Z,21.60
2019-05-19T10:25:25.556Z,21.70
2019-05-19T10:30:30.996Z,21.70
2019-05-19T10:35:37.386Z,21.90
2019-05-19T10:40:42.786Z,21.70
2019-05-19T10:45:59.868Z,21.40
2019-05-19T10:51:03.379Z,21.60
2019-05-19T10:56:07.114Z,21.90
2019-05-19T11:01:12.583Z,22.00
2019-05-19T11:06:16.798Z,22.30
2019-05-19T11:11:21.533Z,22.40
2019-05-19T11:16:26.046Z,22.70
2019-05-19T11:21:30.832Z,22.90
2019-05-19T11:26:34.811Z,23.00
2019-05-19T11:31:38.329Z,23.40
2019-05-19T11:36:42.781Z,23.50
2019-05-19T11:41:47.274Z,23.30
2019-05-19T11:46:52.238Z,23.40
2019-05-19T11:51:56.839Z,23.60
2019-05-19T11:57:01.269Z,23.80
2019-05-19T12:02:06.946Z,23.60
2019-05-19T12:07:12.231Z,23.60
2019-05-19T12:12:19.765Z,23.70
2019-05-19T12:17:23.965Z,23.50
2019-05-19T12:22:28.909Z,23.40
2019-05-19T12:27:35.417Z,23.40
2019-05-19T12:32:41.502Z,23.60
2019-05-19T12:37:45.839Z,23.90
2019-05-19T12:42:51.258Z,24.50
2019-05-19T12:47:57.021Z,24.70
2019-05-19T12:53:02.612Z,24.90
2019-05-19T12:58:09.142Z,25.20
2019-05-19T13:03:14.662Z,25.30
2019-05-19T13:08:20.465Z,25.40
2019-05-19T13:13:26.269Z,25.50
2019-05-19T13:18:31.498Z,25.50
2019-05-19T13:23:37.134Z,26.00
2019-05-19T13:28:42.070Z,25.80
2019-05-19T13:33:47.676Z,26.00
2019-05-19T13:38:54.974Z,26.40
2019-05-19T13:44:01.277Z,26.20
2019-05-19T13:49:07.474Z,26.50
2019-05-19T13:54:13.208Z,26.70
2019-05-19T13:59:18.418Z,27.10
2019-05-19T14:04:23.787Z,26.80
2019-05-19T14:09:29.083Z,26.80
2019-05-19T14:14:34.050Z,27.20
2019-05-19T14:19:39.045Z,27.30
2019-05-19T14:24:44.771Z,27.30
2019-05-19T14:29:50.296Z,27.20
2019-05-19T14:34:55.353Z,27.40
2019-05-19T14:40:01.706Z,27.40
2019-05-19T14:45:07.753Z,27.40
2019-05-19T14:50:14.607Z,27.10
2019-05-19T14:55:19.741Z,27.30
2019-05-19T15:00:24.951Z,27.30
2019-05-19T15:05:30.447Z,27.10
2019-05-19T15:10:36.284Z,27.10
2019-05-19T15:15:41.873Z,27.10
2019-05-19T15:20:46.524Z,27.00
2019-05-19T15:25:50.444Z,26.90
2019-05-19T15:30:56.647Z,26.80
2019-05-19T15:36:01.759Z,26.60
2019-05-19T15:41:08.303Z,26.70
2019-05-19T15:46:12.228Z,26.70
2019-05-19T15:51:29.174Z,26.80
2019-05-19T15:56:31.940Z,26.80
2019-05-19T16:01:36.489Z,26.80
2019-05-19T16:06:41.126Z,27.00
2019-05-19T16:11:45.921Z,26.90
2019-05-19T16:16:51.414Z,26.90
2019-05-19T16:21:56.067Z,26.90
2019-05-19T16:27:01.494Z,27.00
2019-05-19T16:32:07.514Z,27.00
2019-05-19T16:37:13.725Z,26.80
2019-05-19T16:42:19.424Z,26.70
2019-05-19T16:47:25.231Z,26.70
2019-05-19T16:52:31.285Z,26.40
2019-05-19T16:57:37.507Z,26.20
2019-05-19T17:02:43.531Z,26.00
2019-05-19T17:07:49.148Z,25.60
2019-05-19T17:12:55.060Z,25.50
2019-05-19T17:18:00.199Z,25.10
2019-05-19T17:23:05.452Z,25.00
2019-05-19T17:28:11.900Z,24.70
2019-05-19T17:33:17.524Z,24.70
2019-05-19T17:38:28.912Z,24.50
2019-05-19T17:43:36.150Z,24.40
2019-05-19T17:48:41.638Z,24.20
2019-05-19T17:53:47.087Z,24.00
2019-05-19T17:58:52.679Z,23.50
2019-05-19T18:03:58.072Z,23.10
2019-05-19T18:09:04.817Z,22.30
2019-05-19T18:14:11.551Z,21.70
2019-05-19T18:19:16.782Z,21.40
2019-05-19T18:24:22.484Z,21.10
2019-05-19T18:29:31.330Z,21.00
2019-05-19T18:34:34.605Z,20.80
2019-05-19T18:39:40.100Z,20.60
2019-05-19T18:44:46.336Z,20.50
2019-05-19T18:49:51.533Z,20.30
2019-05-19T18:54:56.535Z,20.20
2019-05-19T19:00:01.957Z,20.00
2019-05-19T19:05:07.902Z,19.90
2019-05-19T19:10:13.587Z,19.70
2019-05-19T19:15:19.715Z,19.50
2019-05-19T19:20:25.609Z,19.40
2019-05-19T19:25:31.328Z,19.10
2019-05-19T19:30:36.910Z,19.00
2019-05-19T19:35:42.426Z,19.10
2019-05-19T19:40:47.225Z,19.00
2019-05-19T19:45:51.773Z,18.90
2019-05-19T19:50:59.213Z,18.90
2019-05-19T19:56:02.874Z,18.80
2019-05-19T20:01:06.630Z,18.40
2019-05-19T20:06:10.199Z,18.40
2019-05-19T20:11:16.538Z,18.40
2019-05-19T20:16:21.395Z,18.30
2019-05-19T20:21:25.404Z,18.10
2019-05-19T20:26:30.289Z,18.10
2019-05-19T20:31:34.525Z,18.20
2019-05-19T20:36:39.338Z,18.20
2019-05-19T20:41:43.759Z,18.20
2019-05-19T20:46:48.106Z,18.00
2019-05-19T20:51:52.587Z,17.70
2019-05-19T20:56:57.137Z,17.80
2019-05-19T21:02:02.781Z,17.80
2019-05-19T21:07:08.599Z,17.80
2019-05-19T21:12:14.487Z,17.70
2019-05-19T21:17:19.685Z,17.70
2019-05-19T21:22:26.697Z,17.60
2019-05-19T21:27:32.236Z,17.60
2019-05-19T21:32:37.533Z,17.40
2019-05-19T21:37:42.852Z,17.40
2019-05-19T21:42:48.172Z,17.30
2019-05-19T21:47:54.699Z,17.20
2019-05-19T21:52:59.625Z,17.20
2019-05-19T21:58:04.546Z,17.10
2019-05-19T22:03:09.654Z,17.10
2019-05-19T22:08:17.274Z,16.90
2019-05-19T22:13:22.161Z,16.90
2019-05-19T22:18:27.402Z,16.90
2019-05-19T22:23:32.412Z,16.70
2019-05-19T22:28:37.359Z,16.70
2019-05-19T22:33:42.265Z,16.60
2019-05-19T22:38:47.454Z,16.60
2019-05-19T22:43:52.537Z,16.50
2019-05-19T22:48:58.702Z,16.40
2019-05-19T22:54:03.841Z,16.30
2019-05-19T22:59:19.340Z,16.20
2019-05-19T23:04:15.527Z,16.20
2019-05-19T23:09:20.305Z,16.20
2019-05-19T23:14:25.096Z,16.10
2019-05-19T23:19:30.289Z,16.00
2019-05-19T23:24:35.316Z,15.90
2019-05-19T23:29:40.217Z,15.80
2019-05-19T23:34:45.037Z,15.80
2019-05-19T23:39:50.246Z,15.70
2019-05-19T23:44:55.309Z,15.60
2019-05-19T23:50:01.879Z,15.70
2019-05-19T23:55:07.312Z,15.60
